Knoxville, AR (72845)

6:22 AM CDT on July 28, 2016 (GMT -0500)
The GRAPHIC(West Main) | | Change Station

Elev 410 ft 35.47 °N, 93.50 °W | Updated 3 seconds ago

Scattered Clouds
Scattered Clouds
72.3 °F
Feels Like 72.3 °F
N
0.0
Wind Variable Wind from WNW
Gusts 0.0 mph

Today
High -- | Low -- °F
--% Chance of Precip.
Yesterday
High -- | Low -- °F
Precip. -- in
Pressure 29.91 in
Visibility 7.0 miles
Clouds Scattered Clouds 700 ft
Dew Point 72 °F
Humidity 100%
Rainfall 0.00 in
Snow Depth Not available.
6:19 AM 8:19 PM
Waning Crescent, 33% visible
METAR KRUE 281053Z AUTO 00000KT 7SM SCT007 24/24 A2993 RMK AO2 SLP128 T02440239 TSNO
Pressure 29.91 in
Visibility 7.0 miles
Clouds Scattered Clouds 700 ft
Dew Point 72 °F
Humidity 100%
Rainfall 0.00 in
Snow Depth Not available.
6:19 AM 8:19 PM
Waning Crescent, 33% visible
METAR KRUE 281053Z AUTO 00000KT 7SM SCT007 24/24 A2993 RMK AO2 SLP128 T02440239 TSNO

10-Day Weather Forecast

Almanac

Astronomy

Jul. 28, 2016 Rise Set
Actual Time
Civil Twilight
Nautical Twilight
Astronomical Twilight
Moon
Length of Visible Light
Length of Day
Tomorrow will be .
, % of the Moon is Illuminated

Today's Extremes

State Highs State Lows

Community

WunderPhotos

Upload Photos

1,928,083 photos uploaded!

WunderBlog® & News

Nearby

Air Quality

  Air Quality AQ Index Pollutant
Not available.

Snow Depth

Station Depth Elevation

Earthquake Activity

City Distance Mag. Time & Date
Minimum magnitude displayed is 2.5.

Coastal Water Temperatures

Place Temperature

Stations

Nearby Weather Stations

Station Location Temp. Windchill Dew Point Humidity Wind Precip. Elev Updated Type
                   

Watches & Warnings

There are currently no watches in effect.